createdAt,value
2019-04-21T00:05:24.960Z,11.47
2019-04-21T00:07:50.493Z,6.17
2019-04-21T00:10:27.266Z,7.23
2019-04-21T00:12:52.235Z,10.87
2019-04-21T00:15:19.365Z,6.97
2019-04-21T00:17:39.078Z,12.37
2019-04-21T00:20:20.452Z,12.50
2019-04-21T00:22:52.101Z,16.67
2019-04-21T00:25:23.541Z,18.00
2019-04-21T00:28:09.410Z,22.53
2019-04-21T00:30:42.826Z,27.43
2019-04-21T00:32:59.743Z,20.73
2019-04-21T00:35:24.388Z,26.63
2019-04-21T00:38:13.658Z,21.70
2019-04-21T00:40:41.794Z,21.40
2019-04-21T00:43:13.575Z,18.60
2019-04-21T00:45:38.547Z,15.90
2019-04-21T00:48:17.988Z,11.67
2019-04-21T00:51:05.523Z,13.30
2019-04-21T00:53:43.852Z,12.87
2019-04-21T00:56:08.948Z,9.63
2019-04-21T00:58:43.712Z,10.63
2019-04-21T01:01:07.394Z,10.60
2019-04-21T01:03:41.672Z,6.57
2019-04-21T01:06:11.435Z,7.03
2019-04-21T01:08:35.779Z,6.33
2019-04-21T01:11:12.328Z,4.27
2019-04-21T01:13:45.572Z,4.83
2019-04-21T01:16:13.831Z,9.53
2019-04-21T01:18:48.305Z,3.63
2019-04-21T01:20:51.092Z,10.20
2019-04-21T01:23:21.757Z,5.30
2019-04-21T01:26:07.588Z,6.00
2019-04-21T01:28:41.364Z,5.60
2019-04-21T01:31:15.387Z,4.40
2019-04-21T01:33:52.134Z,4.30
2019-04-21T01:36:14.008Z,6.70
2019-04-21T01:38:58.663Z,8.40
2019-04-21T01:41:20.958Z,5.83
2019-04-21T01:43:45.815Z,6.33
2019-04-21T01:46:14.118Z,4.40
2019-04-21T01:48:46.338Z,4.90
2019-04-21T01:51:15.759Z,7.40
2019-04-21T01:53:55.140Z,6.37
2019-04-21T01:56:38.693Z,6.37
2019-04-21T01:58:59.453Z,4.97
2019-04-21T02:01:39.210Z,5.73
2019-04-21T02:04:16.218Z,4.57
2019-04-21T02:06:45.613Z,8.33
2019-04-21T02:09:09.717Z,5.33
2019-04-21T02:11:52.070Z,6.37
2019-04-21T02:14:15.724Z,5.20
2019-04-21T02:16:48.246Z,9.97
2019-04-21T02:19:11.640Z,5.87
2019-04-21T02:21:39.308Z,5.83
2019-04-21T02:24:25.454Z,6.70
2019-04-21T02:26:49.041Z,6.50
2019-04-21T02:29:24.678Z,6.63
2019-04-21T02:32:11.197Z,5.20
2019-04-21T02:34:27.263Z,6.50
2019-04-21T02:37:17.924Z,6.00
2019-04-21T02:47:16.651Z,4.83
2019-04-21T02:52:01.244Z,4.53
2019-04-21T02:54:48.383Z,5.33
2019-04-21T02:57:01.400Z,9.87
2019-04-21T03:02:25.676Z,7.77
2019-04-21T03:05:18.228Z,8.80
2019-04-21T03:07:50.258Z,7.50
2019-04-21T03:10:17.844Z,7.63
2019-04-21T03:12:42.115Z,5.80
2019-04-21T03:15:21.312Z,6.43
2019-04-21T03:17:51.525Z,10.70
2019-04-21T03:20:17.640Z,7.60
2019-04-21T03:22:42.364Z,7.50
2019-04-21T03:25:30.781Z,5.77
2019-04-21T03:30:29.267Z,7.37
2019-04-21T03:37:42.394Z,8.03
2019-04-21T03:40:14.922Z,8.40
2019-04-21T03:42:53.053Z,10.53
2019-04-21T03:45:27.112Z,6.90
2019-04-21T03:47:43.157Z,6.80
2019-04-21T03:50:20.525Z,6.73
2019-04-21T03:52:53.319Z,7.43
2019-04-21T03:55:51.417Z,8.50
2019-04-21T04:03:27.316Z,6.83
2019-04-21T04:08:44.802Z,8.93
2019-04-21T04:13:39.210Z,8.60
2019-04-21T04:18:46.204Z,10.03
2019-04-21T04:21:10.205Z,10.03
2019-04-21T04:23:42.554Z,8.73
2019-04-21T04:31:05.695Z,9.60
2019-04-21T04:38:39.552Z,8.37
2019-04-21T04:41:33.612Z,7.80
2019-04-21T04:43:44.562Z,8.40
2019-04-21T04:46:22.341Z,6.80
2019-04-21T04:48:41.943Z,11.03
2019-04-21T04:51:25.248Z,10.70
2019-04-21T04:53:45.981Z,7.67
2019-04-21T04:59:20.170Z,5.73
2019-04-21T05:01:28.944Z,7.37
2019-04-21T05:03:48.988Z,10.20
2019-04-21T05:14:02.949Z,25.40
2019-04-21T05:21:34.722Z,15.27
2019-04-21T05:23:47.017Z,11.10
2019-04-21T05:26:10.874Z,11.10
2019-04-21T05:28:42.025Z,8.97
2019-04-21T05:31:27.522Z,12.53
2019-04-21T05:34:00.424Z,10.10
2019-04-21T05:36:38.253Z,10.90
2019-04-21T05:39:10.422Z,9.93
2019-04-21T05:41:36.169Z,10.40
2019-04-21T05:44:20.458Z,10.07
2019-04-21T05:46:49.435Z,8.33
2019-04-21T05:49:20.581Z,11.10
2019-04-21T05:54:44.310Z,7.27
2019-04-21T05:57:22.259Z,9.53
2019-04-21T06:07:38.261Z,9.83
2019-04-21T06:10:07.272Z,12.23
2019-04-21T06:12:33.993Z,20.17
2019-04-21T06:15:09.627Z,8.93
2019-04-21T06:17:47.260Z,12.60
2019-04-21T06:20:07.872Z,9.33
2019-04-21T06:22:39.834Z,10.50
2019-04-21T06:25:31.229Z,10.90
2019-04-21T06:27:42.426Z,9.97
2019-04-21T06:30:05.240Z,13.63
2019-04-21T06:32:46.789Z,18.30
2019-04-21T06:38:00.922Z,13.30
2019-04-21T06:40:35.761Z,9.83
2019-04-21T06:43:15.683Z,10.00
2019-04-21T06:45:36.607Z,13.53
2019-04-21T06:48:05.982Z,13.73
2019-04-21T06:50:31.846Z,11.20
2019-04-21T06:53:13.527Z,12.80
2019-04-21T06:55:35.226Z,9.50
2019-04-21T06:58:07.872Z,13.47
2019-04-21T07:00:33.072Z,10.27
2019-04-21T07:03:17.021Z,14.00
2019-04-21T07:05:34.626Z,13.27
2019-04-21T07:08:27.902Z,10.63
2019-04-21T07:10:35.420Z,12.47
2019-04-21T07:13:03.744Z,11.47
2019-04-21T07:15:36.931Z,12.27
2019-04-21T07:18:04.437Z,15.43
2019-04-21T07:20:36.628Z,12.27
2019-04-21T07:23:09.426Z,12.17
2019-04-21T07:25:40.795Z,13.27
2019-04-21T07:28:05.257Z,13.87
2019-04-21T07:30:45.335Z,13.67
2019-04-21T07:33:33.143Z,11.73
2019-04-21T07:35:37.302Z,13.53
2019-04-21T07:38:11.958Z,12.67
2019-04-21T07:40:36.512Z,17.70
2019-04-21T07:43:05.672Z,16.37
2019-04-21T07:45:35.060Z,10.33
2019-04-21T07:48:12.689Z,14.13
2019-04-21T07:50:56.290Z,15.13
2019-04-21T07:55:37.437Z,13.90
2019-04-21T07:58:29.846Z,13.20
2019-04-21T08:03:30.370Z,12.03
2019-04-21T08:05:58.562Z,13.33
2019-04-21T08:08:27.795Z,16.13
2019-04-21T08:11:00.031Z,12.80
2019-04-21T08:13:34.543Z,30.90
2019-04-21T08:15:58.320Z,17.77
2019-04-21T08:18:36.196Z,13.23
2019-04-21T08:21:02.465Z,15.70
2019-04-21T08:23:31.893Z,11.87
2019-04-21T08:26:04.848Z,16.60
2019-04-21T08:28:35.827Z,12.90
2019-04-21T08:31:02.739Z,12.33
2019-04-21T08:33:41.464Z,10.37
2019-04-21T08:38:37.774Z,11.00
2019-04-21T08:41:08.561Z,13.57
2019-04-21T08:43:43.166Z,9.10
2019-04-21T08:46:08.217Z,7.90
2019-04-21T08:48:40.438Z,11.50
2019-04-21T08:51:18.531Z,12.03
2019-04-21T08:56:18.435Z,11.00
2019-04-21T08:59:03.861Z,9.53
2019-04-21T09:01:41.587Z,11.80
2019-04-21T09:04:07.540Z,8.63
2019-04-21T09:06:55.709Z,9.20
2019-04-21T09:09:10.952Z,10.50
2019-04-21T09:11:36.279Z,8.40
2019-04-21T09:14:07.090Z,10.80
2019-04-21T09:16:39.672Z,10.70
2019-04-21T09:19:04.423Z,10.13
2019-04-21T09:21:45.440Z,7.93
2019-04-21T09:24:16.222Z,7.90
2019-04-21T09:26:40.647Z,6.50
2019-04-21T09:29:04.271Z,7.40
2019-04-21T09:31:31.857Z,9.67
2019-04-21T09:34:02.302Z,9.70
2019-04-21T09:36:36.202Z,8.07
2019-04-21T09:39:07.789Z,6.20
2019-04-21T09:41:30.908Z,7.07
2019-04-21T09:44:01.225Z,5.47
2019-04-21T09:46:29.966Z,8.27
2019-04-21T09:49:02.659Z,6.13
2019-04-21T09:51:28.812Z,8.70
2019-04-21T09:54:05.779Z,7.10
2019-04-21T09:56:35.822Z,4.80
2019-04-21T09:59:10.133Z,5.90
2019-04-21T10:01:42.042Z,8.43
2019-04-21T10:04:02.414Z,7.67
2019-04-21T10:06:30.667Z,5.23
2019-04-21T10:09:04.147Z,4.30
2019-04-21T10:11:31.119Z,17.47
2019-04-21T10:14:00.889Z,10.43
2019-04-21T10:16:34.358Z,6.93
2019-04-21T10:19:02.922Z,4.47
2019-04-21T10:21:31.878Z,9.27
2019-04-21T10:24:00.482Z,7.60
2019-04-21T10:26:29.036Z,7.03
2019-04-21T10:29:05.688Z,9.30
2019-04-21T10:31:29.030Z,5.53
2019-04-21T10:33:58.839Z,9.50
2019-04-21T10:36:27.449Z,8.43
2019-04-21T10:38:57.661Z,4.10
2019-04-21T10:41:27.587Z,4.57
2019-04-21T10:43:56.200Z,5.13
2019-04-21T10:46:24.795Z,6.37
2019-04-21T10:48:54.808Z,5.37
2019-04-21T10:51:23.567Z,10.47
2019-04-21T10:53:57.902Z,6.30
2019-04-21T10:56:30.631Z,5.73
2019-04-21T10:58:56.237Z,7.83
2019-04-21T11:01:27.204Z,6.40
2019-04-21T11:03:58.497Z,6.27
2019-04-21T11:06:28.576Z,5.73
2019-04-21T11:08:59.487Z,4.77
2019-04-21T11:11:27.986Z,5.20
2019-04-21T11:13:56.917Z,8.13
2019-04-21T11:16:26.800Z,5.67
2019-04-21T11:18:55.960Z,11.40
2019-04-21T11:21:25.023Z,4.50
2019-04-21T11:23:54.251Z,5.77
2019-04-21T11:26:24.129Z,5.47
2019-04-21T11:28:52.850Z,6.33
2019-04-21T11:31:22.939Z,4.97
2019-04-21T11:33:55.830Z,3.63
2019-04-21T11:36:24.984Z,7.30
2019-04-21T11:39:11.011Z,5.90
2019-04-21T11:41:26.025Z,6.40
2019-04-21T11:43:55.012Z,4.90
2019-04-21T11:46:24.502Z,3.67
2019-04-21T11:48:54.681Z,7.53
2019-04-21T11:51:24.798Z,5.50
2019-04-21T11:53:54.896Z,6.00
2019-04-21T11:56:24.970Z,5.73
2019-04-21T11:58:54.058Z,4.80
2019-04-21T12:01:23.482Z,5.30
2019-04-21T12:03:55.694Z,7.00
2019-04-21T12:06:32.252Z,5.30
2019-04-21T12:08:57.670Z,5.80
2019-04-21T12:11:25.228Z,4.83
2019-04-21T12:13:54.249Z,5.43
2019-04-21T12:16:23.335Z,5.40
2019-04-21T12:18:54.647Z,3.83
2019-04-21T12:21:23.548Z,3.83
2019-04-21T12:23:58.658Z,6.67
2019-04-21T12:26:28.294Z,8.77
2019-04-21T12:28:57.631Z,5.43
2019-04-21T12:31:31.748Z,4.77
2019-04-21T12:34:03.544Z,4.60
2019-04-21T12:36:33.719Z,4.80
2019-04-21T12:39:05.074Z,7.40
2019-04-21T12:41:32.948Z,12.43
2019-04-21T12:44:02.549Z,7.70
2019-04-21T12:46:31.836Z,5.03
2019-04-21T12:49:00.484Z,5.03
2019-04-21T12:51:30.182Z,5.00
2019-04-21T12:53:59.574Z,3.60
2019-04-21T12:56:29.475Z,3.77
2019-04-21T12:58:59.443Z,6.90
2019-04-21T13:01:28.153Z,7.60
2019-04-21T13:03:57.826Z,4.63
2019-04-21T13:06:27.686Z,3.87
2019-04-21T13:09:03.387Z,8.53
2019-04-21T13:11:26.732Z,5.83
2019-04-21T13:13:55.707Z,4.40
2019-04-21T13:16:25.420Z,4.63
2019-04-21T13:18:55.328Z,3.37
2019-04-21T13:21:24.325Z,7.40
2019-04-21T13:23:52.892Z,4.10
2019-04-21T13:26:32.769Z,5.00
2019-04-21T13:28:54.222Z,6.23
2019-04-21T13:31:24.469Z,3.40
2019-04-21T13:33:53.256Z,6.03
2019-04-21T13:36:21.802Z,6.50
2019-04-21T13:39:42.349Z,5.03
2019-04-21T13:41:50.489Z,4.73
2019-04-21T13:44:15.911Z,3.63
2019-04-21T13:46:47.127Z,5.00
2019-04-21T13:49:17.374Z,4.73
2019-04-21T13:51:46.075Z,6.80
2019-04-21T13:54:15.707Z,6.73
2019-04-21T13:56:44.928Z,4.23
2019-04-21T13:59:14.027Z,4.17
2019-04-21T14:01:43.632Z,3.60
2019-04-21T14:04:13.638Z,4.30
2019-04-21T14:06:42.525Z,4.33
2019-04-21T14:09:13.704Z,4.10
2019-04-21T14:11:43.441Z,3.80
2019-04-21T14:14:12.540Z,3.13
2019-04-21T14:16:42.355Z,4.57
2019-04-21T14:19:10.967Z,3.80
2019-04-21T14:21:39.602Z,5.53
2019-04-21T14:24:08.895Z,3.20
2019-04-21T14:26:38.530Z,4.73
2019-04-21T14:29:07.748Z,3.10
2019-04-21T14:31:38.113Z,3.47
2019-04-21T14:34:08.037Z,4.07
2019-04-21T14:36:37.026Z,7.90
2019-04-21T14:39:10.374Z,8.20
2019-04-21T14:41:40.321Z,8.13
2019-04-21T14:44:09.216Z,5.20
2019-04-21T14:46:45.214Z,4.77
2019-04-21T14:49:19.340Z,3.17
2019-04-21T14:51:56.753Z,5.87
2019-04-21T14:54:33.140Z,2.93
2019-04-21T14:57:03.251Z,4.87
2019-04-21T14:59:33.246Z,7.33
2019-04-21T15:02:02.192Z,4.33
2019-04-21T15:04:31.554Z,3.97
2019-04-21T15:07:01.331Z,2.60
2019-04-21T15:09:31.350Z,3.50
2019-04-21T15:12:02.266Z,3.20
2019-04-21T15:14:31.865Z,3.20
2019-04-21T15:17:01.005Z,4.03
2019-04-21T15:19:30.817Z,3.37
2019-04-21T15:22:00.724Z,2.90
2019-04-21T15:24:30.174Z,4.77
2019-04-21T15:26:59.092Z,3.60
2019-04-21T15:29:28.880Z,2.77
2019-04-21T15:31:58.843Z,4.27
2019-04-21T15:34:27.526Z,5.13
2019-04-21T15:36:56.094Z,9.23
2019-04-21T15:39:25.743Z,4.30
2019-04-21T15:41:58.779Z,3.40
2019-04-21T15:44:27.516Z,3.20
2019-04-21T15:46:56.071Z,5.13
2019-04-21T15:49:28.322Z,2.97
2019-04-21T15:51:58.016Z,4.30
2019-04-21T15:54:27.254Z,4.40
2019-04-21T15:57:00.755Z,3.97
2019-04-21T15:59:30.956Z,3.47
2019-04-21T16:02:17.051Z,3.03
2019-04-21T16:04:46.533Z,4.40
2019-04-21T16:07:16.117Z,4.60
2019-04-21T16:09:46.083Z,2.30
2019-04-21T16:12:15.928Z,5.50
2019-04-21T16:14:44.736Z,3.30
2019-04-21T16:17:13.354Z,4.07
2019-04-21T16:19:41.903Z,3.00
2019-04-21T16:22:10.839Z,3.83
2019-04-21T16:24:39.860Z,3.73
2019-04-21T16:27:10.719Z,4.50
2019-04-21T16:29:39.526Z,4.80
2019-04-21T16:32:09.115Z,4.07
2019-04-21T16:34:48.384Z,9.77
2019-04-21T16:37:08.216Z,5.90
2019-04-21T16:39:37.770Z,5.07
2019-04-21T16:42:08.408Z,5.57
2019-04-21T16:44:37.084Z,4.70
2019-04-21T16:47:07.629Z,4.90
2019-04-21T16:49:37.911Z,4.20
2019-04-21T16:52:08.214Z,17.97
2019-04-21T16:54:37.912Z,12.03
2019-04-21T16:57:08.245Z,23.17
2019-04-21T16:59:39.016Z,13.40
2019-04-21T17:02:07.696Z,10.37
2019-04-21T17:04:36.406Z,5.20
2019-04-21T17:07:05.261Z,5.20
2019-04-21T17:09:34.677Z,5.40
2019-04-21T17:12:06.384Z,3.70
2019-04-21T17:16:27.343Z,4.63
2019-04-21T17:17:26.873Z,4.77
2019-04-21T17:19:42.073Z,4.43
2019-04-21T17:22:05.897Z,5.57
2019-04-21T17:24:34.793Z,4.30
2019-04-21T17:27:05.011Z,3.23
2019-04-21T17:29:34.565Z,5.62
2019-04-21T17:32:07.437Z,5.10
2019-04-21T17:34:35.526Z,4.40
2019-04-21T17:37:05.430Z,4.57
2019-04-21T17:39:34.615Z,2.90
2019-04-21T17:42:16.584Z,3.20
2019-04-21T17:44:35.089Z,4.97
2019-04-21T17:47:11.730Z,5.27
2019-04-21T17:49:37.050Z,3.43
2019-04-21T17:52:11.743Z,4.47
2019-04-21T17:54:48.418Z,4.77
2019-04-21T17:57:32.327Z,6.33
2019-04-21T18:00:04.218Z,5.47
2019-04-21T18:02:36.943Z,5.20
2019-04-21T18:05:08.593Z,4.23
2019-04-21T18:07:36.347Z,3.20
2019-04-21T18:10:17.466Z,3.97
2019-04-21T18:12:33.778Z,5.43
2019-04-21T18:14:59.834Z,5.63
2019-04-21T18:17:20.610Z,4.67
2019-04-21T18:19:51.853Z,5.20
2019-04-21T18:22:43.522Z,4.20
2019-04-21T18:25:25.365Z,4.97
2019-04-21T18:27:42.708Z,5.30
2019-04-21T18:30:40.337Z,8.07
2019-04-21T18:33:15.509Z,8.17
2019-04-21T18:35:59.977Z,8.17
2019-04-21T18:38:59.990Z,8.90
2019-04-21T18:41:15.418Z,7.33
2019-04-21T18:44:15.198Z,9.50
2019-04-21T18:46:38.679Z,9.03
2019-04-21T18:48:57.221Z,6.57
2019-04-21T18:51:35.918Z,7.27
2019-04-21T18:54:24.237Z,6.17
2019-04-21T18:56:33.766Z,7.57
2019-04-21T18:59:02.818Z,13.83
2019-04-21T19:01:34.825Z,7.67
2019-04-21T19:04:05.376Z,8.80
2019-04-21T19:06:46.950Z,12.67
2019-04-21T19:09:21.591Z,12.70
2019-04-21T19:11:51.834Z,12.40
2019-04-21T19:14:31.981Z,13.37
2019-04-21T19:19:39.221Z,17.77
2019-04-21T19:22:00.361Z,19.60
2019-04-21T19:24:41.318Z,18.33
2019-04-21T19:26:58.788Z,19.70
2019-04-21T19:29:29.178Z,16.57
2019-04-21T19:31:59.965Z,13.87
2019-04-21T19:34:18.468Z,16.63
2019-04-21T19:36:46.675Z,14.57
2019-04-21T19:39:16.434Z,11.37
2019-04-21T19:41:56.098Z,13.13
2019-04-21T19:44:29.334Z,10.80
2019-04-21T19:47:05.206Z,16.93
2019-04-21T19:49:32.130Z,13.33
2019-04-21T19:51:52.291Z,12.23
2019-04-21T19:54:22.890Z,12.83
2019-04-21T19:56:44.815Z,17.60
2019-04-21T19:59:23.828Z,15.60
2019-04-21T20:01:46.768Z,15.20
2019-04-21T20:04:14.766Z,18.33
2019-04-21T20:06:56.976Z,19.07
2019-04-21T20:09:32.206Z,21.70
2019-04-21T20:11:58.174Z,21.07
2019-04-21T20:16:59.279Z,14.77
2019-04-21T20:19:16.207Z,20.23
2019-04-21T20:21:46.998Z,19.57
2019-04-21T20:24:22.922Z,20.20
2019-04-21T20:26:58.594Z,20.03
2019-04-21T20:29:37.463Z,19.87
2019-04-21T20:32:14.732Z,20.83
2019-04-21T20:34:38.662Z,16.63
2019-04-21T20:37:09.603Z,14.77
2019-04-21T20:39:23.020Z,16.70
2019-04-21T20:42:01.825Z,17.43
2019-04-21T20:44:36.859Z,14.00
2019-04-21T20:47:03.808Z,14.13
2019-04-21T20:49:32.173Z,16.30
2019-04-21T20:52:10.767Z,11.93
2019-04-21T20:54:37.134Z,11.83
2019-04-21T20:57:24.179Z,7.33
2019-04-21T20:59:32.701Z,6.30
2019-04-21T21:02:12.013Z,8.43
2019-04-21T21:04:36.916Z,6.90
2019-04-21T21:07:30.635Z,5.90
2019-04-21T21:09:54.355Z,5.63
2019-04-21T21:12:41.065Z,5.10
2019-04-21T21:14:42.333Z,5.80
2019-04-21T21:17:37.846Z,4.73
2019-04-21T21:19:55.764Z,8.30
2019-04-21T21:22:10.942Z,4.63
2019-04-21T21:24:49.628Z,7.80
2019-04-21T21:27:13.018Z,6.27
2019-04-21T21:29:45.751Z,4.70
2019-04-21T21:32:24.155Z,7.63
2019-04-21T21:34:49.637Z,5.50
2019-04-21T21:37:26.828Z,3.30
2019-04-21T21:42:06.101Z,4.67
2019-04-21T21:44:35.286Z,8.00
2019-04-21T21:47:17.514Z,4.27
2019-04-21T21:49:51.196Z,3.40
2019-04-21T21:52:14.428Z,3.90
2019-04-21T21:54:35.981Z,4.13
2019-04-21T21:57:05.123Z,6.33
2019-04-21T21:59:38.070Z,3.97
2019-04-21T22:02:05.274Z,4.47
2019-04-21T22:04:37.271Z,3.43
2019-04-21T22:07:10.000Z,3.73
2019-04-21T22:09:34.900Z,5.50
2019-04-21T22:12:06.688Z,3.97
2019-04-21T22:14:41.574Z,5.37
2019-04-21T22:17:23.739Z,5.20
2019-04-21T22:20:01.849Z,9.13
2019-04-21T22:22:21.566Z,5.77
2019-04-21T22:24:49.331Z,5.70
2019-04-21T22:27:07.253Z,8.13
2019-04-21T22:29:41.728Z,5.80
2019-04-21T22:32:13.477Z,5.13
2019-04-21T22:34:46.774Z,4.60
2019-04-21T22:37:25.895Z,4.33
2019-04-21T22:39:54.386Z,9.03
2019-04-21T22:42:17.321Z,5.77
2019-04-21T22:44:38.614Z,5.10
2019-04-21T22:47:16.804Z,5.23
2019-04-21T22:49:38.795Z,6.33
2019-04-21T22:52:13.805Z,4.50
2019-04-21T22:54:41.314Z,5.57
2019-04-21T22:57:14.848Z,5.07
2019-04-21T22:59:40.438Z,4.10
2019-04-21T23:02:17.657Z,5.70
2019-04-21T23:04:46.215Z,6.37
2019-04-21T23:07:15.415Z,5.43
2019-04-21T23:09:40.612Z,8.90
2019-04-21T23:12:12.476Z,4.73
2019-04-21T23:14:47.424Z,5.47
2019-04-21T23:17:30.809Z,4.80
2019-04-21T23:20:03.623Z,3.40
2019-04-21T23:22:27.570Z,6.70
2019-04-21T23:25:03.054Z,5.27
2019-04-21T23:27:25.116Z,7.50
2019-04-21T23:30:08.177Z,4.93
2019-04-21T23:32:23.862Z,5.37
2019-04-21T23:34:44.169Z,7.83
2019-04-21T23:37:18.492Z,4.63
2019-04-21T23:39:43.588Z,4.43
2019-04-21T23:42:20.776Z,5.80
2019-04-21T23:44:47.500Z,5.30
2019-04-21T23:47:27.788Z,3.93
2019-04-21T23:49:53.346Z,4.20
2019-04-21T23:52:16.025Z,6.13
2019-04-21T23:54:45.175Z,5.37
2019-04-21T23:57:24.598Z,5.50
2019-04-21T23:59:51.892Z,4.20
